Queluz, Brazil
Current Conditions -  °F | °C
As of 2:00 PM on Monday 20 Oct 2014 (Local Time) from SBGW Reporting Station
Scattered Clouds Scattered Clouds  
Wind Chill: 84°   Ceiling: Unl
Heat Index: 86°   Visibility: 5mi
Dew Point: 64°   Wind: 9mph
Humidity: 51%   Direction: 250°WSW
Pressure: 29.97"   Gusts: NA
Location:  22.54°S, 44.77°W
Report Text: SBGW 201700Z 25008KT 8000 SCT030 SCT100 29/18 Q1015
Loading
Personal Weather Stations






























Interactive Weather Map
Tropical Storm Tracking
New forecast layout! Learn more

10-Day Weather Forecast

Advertisements
Track Severe Weather on mobile